createdAt,value
2017-11-29T00:01:42.899Z,3.48
2017-11-29T00:04:10.436Z,3.37
2017-11-29T00:06:37.824Z,3.56
2017-11-29T00:09:05.274Z,3.33
2017-11-29T00:11:32.661Z,3.29
2017-11-29T00:14:00.116Z,3.34
2017-11-29T00:16:27.513Z,3.36
2017-11-29T00:18:55.053Z,3.32
2017-11-29T00:21:22.462Z,3.30
2017-11-29T00:23:49.892Z,3.29
2017-11-29T00:26:17.363Z,3.33
2017-11-29T00:28:44.793Z,3.30
2017-11-29T00:31:12.250Z,3.37
2017-11-29T00:33:39.768Z,3.35
2017-11-29T00:36:07.242Z,3.17
2017-11-29T00:38:34.711Z,3.19
2017-11-29T00:41:02.183Z,3.11
2017-11-29T00:43:29.860Z,3.07
2017-11-29T00:45:57.407Z,3.05
2017-11-29T00:48:26.065Z,3.14
2017-11-29T00:50:53.563Z,3.12
2017-11-29T00:53:20.952Z,2.88
2017-11-29T00:55:48.543Z,2.84
2017-11-29T00:58:15.934Z,2.81
2017-11-29T01:00:43.466Z,2.73
2017-11-29T01:03:10.853Z,2.77
2017-11-29T01:05:38.320Z,2.70
2017-11-29T01:08:05.708Z,2.83
2017-11-29T01:10:33.154Z,2.88
2017-11-29T01:13:00.621Z,2.89
2017-11-29T01:15:28.278Z,2.90
2017-11-29T01:17:56.260Z,2.97
2017-11-29T01:20:23.810Z,2.95
2017-11-29T01:22:51.235Z,2.94
2017-11-29T01:25:18.666Z,3.04
2017-11-29T01:27:46.047Z,3.00
2017-11-29T01:30:13.614Z,2.99
2017-11-29T01:32:41.068Z,3.02
2017-11-29T01:35:08.672Z,2.97
2017-11-29T01:37:36.055Z,3.00
2017-11-29T01:40:03.482Z,3.00
2017-11-29T01:42:30.886Z,2.96
2017-11-29T01:44:58.552Z,2.73
2017-11-29T01:47:26.280Z,2.67
2017-11-29T01:49:53.880Z,2.54
2017-11-29T01:52:21.367Z,2.39
2017-11-29T01:54:48.765Z,2.31
2017-11-29T01:57:16.188Z,2.13
2017-11-29T01:59:43.600Z,2.09
2017-11-29T02:02:11.019Z,2.14
2017-11-29T02:04:38.419Z,2.12
2017-11-29T02:07:05.842Z,2.06
2017-11-29T02:09:33.256Z,2.15
2017-11-29T02:12:00.826Z,2.14
2017-11-29T02:14:28.358Z,2.10
2017-11-29T02:16:55.924Z,2.08
2017-11-29T02:19:23.757Z,2.08
2017-11-29T02:21:51.321Z,2.10
2017-11-29T02:24:18.715Z,2.11
2017-11-29T02:26:46.156Z,2.24
2017-11-29T02:29:13.627Z,2.22
2017-11-29T02:31:41.097Z,2.33
2017-11-29T02:34:08.568Z,2.23
2017-11-29T02:36:36.012Z,2.26
2017-11-29T02:39:03.545Z,2.20
2017-11-29T02:41:42.986Z,2.07
2017-11-29T02:44:10.374Z,2.01
2017-11-29T02:46:37.907Z,1.79
2017-11-29T02:49:05.300Z,1.73
2017-11-29T02:51:32.734Z,1.58
2017-11-29T02:54:00.268Z,1.54
2017-11-29T02:56:27.783Z,1.52
2017-11-29T02:58:55.396Z,1.45
2017-11-29T03:01:22.979Z,1.43
2017-11-29T03:03:50.499Z,1.38
2017-11-29T03:06:17.939Z,1.30
2017-11-29T03:08:45.359Z,1.33
2017-11-29T03:11:12.829Z,1.29
2017-11-29T03:13:40.251Z,1.28
2017-11-29T03:16:07.632Z,1.12
2017-11-29T03:18:35.060Z,1.11
2017-11-29T03:21:02.481Z,1.11
2017-11-29T03:23:30.011Z,1.10
2017-11-29T03:25:57.464Z,1.20
2017-11-29T03:28:24.976Z,1.13
2017-11-29T03:30:52.447Z,1.10
2017-11-29T03:33:19.984Z,1.19
2017-11-29T03:35:47.372Z,1.15
2017-11-29T03:38:14.922Z,1.22
2017-11-29T03:40:42.392Z,1.27
2017-11-29T03:43:09.912Z,1.27
2017-11-29T03:45:37.313Z,1.33
2017-11-29T03:48:04.761Z,1.44
2017-11-29T03:50:32.149Z,1.47
2017-11-29T03:52:59.819Z,1.45
2017-11-29T03:55:27.384Z,1.49
2017-11-29T03:57:55.299Z,1.43
2017-11-29T04:00:22.770Z,1.42
2017-11-29T04:02:50.296Z,1.37
2017-11-29T04:05:17.689Z,1.37
2017-11-29T04:07:45.204Z,1.26
2017-11-29T04:10:12.606Z,1.14
2017-11-29T04:12:40.065Z,1.16
2017-11-29T04:15:07.473Z,1.08
2017-11-29T04:17:34.905Z,1.12
2017-11-29T04:20:02.377Z,0.98
2017-11-29T04:22:29.795Z,1.09
2017-11-29T04:24:59.687Z,1.16
2017-11-29T04:27:29.913Z,1.16
2017-11-29T04:30:08.265Z,1.39
2017-11-29T04:32:40.830Z,1.40
2017-11-29T04:35:08.351Z,1.61
2017-11-29T04:37:35.740Z,2.02
2017-11-29T04:40:03.172Z,1.73
2017-11-29T04:42:30.564Z,1.72
2017-11-29T04:44:58.039Z,1.93
2017-11-29T04:47:25.455Z,1.88
2017-11-29T04:49:52.874Z,1.89
2017-11-29T04:52:20.269Z,1.95
2017-11-29T04:54:47.710Z,1.79
2017-11-29T04:57:15.098Z,1.74
2017-11-29T04:59:42.533Z,1.71
2017-11-29T05:02:09.948Z,1.82
2017-11-29T05:04:37.423Z,2.03
2017-11-29T05:07:04.811Z,2.12
2017-11-29T05:09:32.251Z,2.16
2017-11-29T05:11:59.651Z,2.16
2017-11-29T05:14:27.111Z,2.25
2017-11-29T05:16:54.539Z,2.26
2017-11-29T05:19:21.964Z,2.34
2017-11-29T05:21:49.364Z,2.41
2017-11-29T05:24:16.788Z,2.60
2017-11-29T05:26:44.212Z,2.59
2017-11-29T05:29:11.667Z,2.56
2017-11-29T05:31:39.080Z,2.60
2017-11-29T05:34:06.523Z,2.59
2017-11-29T05:36:33.913Z,2.62
2017-11-29T05:39:01.303Z,2.62
2017-11-29T05:41:28.748Z,2.53
2017-11-29T05:43:56.203Z,2.61
2017-11-29T05:46:23.674Z,2.68
2017-11-29T05:48:51.062Z,2.64
2017-11-29T05:51:18.495Z,2.62
2017-11-29T05:53:45.885Z,2.57
2017-11-29T05:56:13.376Z,2.45
2017-11-29T05:58:40.840Z,2.59
2017-11-29T06:01:08.309Z,2.52
2017-11-29T06:03:35.783Z,2.50
2017-11-29T06:06:03.225Z,2.66
2017-11-29T06:08:30.623Z,2.56
2017-11-29T06:10:58.095Z,2.63
2017-11-29T06:13:25.593Z,2.57
2017-11-29T06:15:53.105Z,2.52
2017-11-29T06:18:20.600Z,2.59
2017-11-29T06:20:48.072Z,2.64
2017-11-29T06:23:15.546Z,2.62
2017-11-29T06:25:43.024Z,2.65
2017-11-29T06:28:10.423Z,2.68
2017-11-29T06:30:37.860Z,2.63
2017-11-29T06:33:05.324Z,2.61
2017-11-29T06:35:32.754Z,2.63
2017-11-29T06:38:00.152Z,2.69
2017-11-29T06:40:27.648Z,2.62
2017-11-29T06:42:55.080Z,2.65
2017-11-29T06:45:22.578Z,2.61
2017-11-29T06:47:50.024Z,2.71
2017-11-29T06:50:17.505Z,2.83
2017-11-29T06:52:44.933Z,2.79
2017-11-29T06:55:12.332Z,2.74
2017-11-29T06:57:39.827Z,2.73
2017-11-29T07:00:07.288Z,2.79
2017-11-29T07:02:34.715Z,2.77
2017-11-29T07:05:02.098Z,2.80
2017-11-29T07:07:29.572Z,2.84
2017-11-29T07:09:57.001Z,2.87
2017-11-29T07:12:24.505Z,2.91
2017-11-29T07:14:52.013Z,2.97
2017-11-29T07:17:19.480Z,3.00
2017-11-29T07:19:46.889Z,2.96
2017-11-29T07:22:14.425Z,3.00
2017-11-29T07:24:41.884Z,3.00
2017-11-29T07:27:09.360Z,3.04
2017-11-29T07:29:36.841Z,2.97
2017-11-29T07:32:04.341Z,3.04
2017-11-29T07:34:31.773Z,3.08
2017-11-29T07:36:59.258Z,3.04
2017-11-29T07:39:26.797Z,3.02
2017-11-29T07:41:54.305Z,3.11
2017-11-29T07:44:21.718Z,3.10
2017-11-29T07:46:49.155Z,3.19
2017-11-29T07:49:16.595Z,3.23
2017-11-29T07:51:44.066Z,3.23
2017-11-29T07:54:11.458Z,3.22
2017-11-29T07:56:38.896Z,3.25
2017-11-29T07:59:06.285Z,3.25
2017-11-29T08:01:33.685Z,3.23
2017-11-29T08:04:01.119Z,3.24
2017-11-29T08:06:28.591Z,3.18
2017-11-29T08:08:56.213Z,3.25
2017-11-29T08:11:23.673Z,3.31
2017-11-29T08:13:51.188Z,3.48
2017-11-29T08:16:18.771Z,3.48
2017-11-29T08:18:46.198Z,3.54
2017-11-29T08:21:13.606Z,3.67
2017-11-29T08:23:41.066Z,3.70
2017-11-29T08:26:08.468Z,3.69
2017-11-29T08:28:35.903Z,3.87
2017-11-29T08:31:03.295Z,3.88
2017-11-29T08:33:30.756Z,3.97
2017-11-29T08:35:58.161Z,4.00
2017-11-29T08:38:25.612Z,4.02
2017-11-29T08:40:53.043Z,4.14
2017-11-29T08:43:20.486Z,4.26
2017-11-29T08:45:47.988Z,4.29
2017-11-29T08:48:15.431Z,4.41
2017-11-29T08:50:42.831Z,4.43
2017-11-29T08:53:10.294Z,4.44
2017-11-29T08:55:37.675Z,4.61
2017-11-29T08:58:05.116Z,4.53
2017-11-29T09:00:32.505Z,4.76
2017-11-29T09:02:59.969Z,4.80
2017-11-29T09:05:27.401Z,4.79
2017-11-29T09:07:54.866Z,4.87
2017-11-29T09:10:22.249Z,4.87
2017-11-29T09:12:49.635Z,4.92
2017-11-29T09:15:17.069Z,4.98
2017-11-29T09:17:44.467Z,4.88
2017-11-29T09:20:12.007Z,4.71
2017-11-29T09:22:39.404Z,4.93
2017-11-29T09:25:06.875Z,5.13
2017-11-29T09:27:34.277Z,5.00
2017-11-29T09:30:01.711Z,4.86
2017-11-29T09:32:29.216Z,5.02
2017-11-29T09:34:56.681Z,5.14
2017-11-29T09:37:24.115Z,5.16
2017-11-29T09:39:51.568Z,5.10
2017-11-29T09:42:18.976Z,5.34
2017-11-29T09:44:46.419Z,5.22
2017-11-29T09:47:13.818Z,5.08
2017-11-29T09:49:41.270Z,5.09
2017-11-29T09:52:08.670Z,5.15
2017-11-29T09:54:36.164Z,5.07
2017-11-29T09:57:03.555Z,5.00
2017-11-29T09:59:31.007Z,4.97
2017-11-29T10:01:58.403Z,4.85
2017-11-29T10:04:25.873Z,4.88
2017-11-29T10:06:53.293Z,4.99
2017-11-29T10:09:20.765Z,5.10
2017-11-29T10:11:48.164Z,5.16
2017-11-29T10:14:15.602Z,5.36
2017-11-29T10:16:42.998Z,5.33
2017-11-29T10:19:10.528Z,5.37
2017-11-29T10:21:37.925Z,5.30
2017-11-29T10:24:05.358Z,5.17
2017-11-29T10:26:32.827Z,5.21
2017-11-29T10:29:00.293Z,5.05
2017-11-29T10:31:27.760Z,4.91
2017-11-29T10:33:55.305Z,5.07
2017-11-29T10:36:22.740Z,4.73
2017-11-29T10:38:50.127Z,4.79
2017-11-29T10:41:17.640Z,4.82
2017-11-29T10:43:45.112Z,4.72
2017-11-29T10:46:12.571Z,4.65
2017-11-29T10:48:40.056Z,4.59
2017-11-29T10:51:07.503Z,4.64
2017-11-29T10:53:34.997Z,4.79
2017-11-29T10:56:02.446Z,4.66
2017-11-29T10:58:29.947Z,4.94
2017-11-29T11:00:57.429Z,5.01
2017-11-29T11:03:24.838Z,4.98
2017-11-29T11:05:52.286Z,5.24
2017-11-29T11:08:19.689Z,5.27
2017-11-29T11:10:47.192Z,5.42
2017-11-29T11:13:14.658Z,5.65
2017-11-29T11:15:42.111Z,5.72
2017-11-29T11:18:09.508Z,5.58
2017-11-29T11:20:36.964Z,5.72
2017-11-29T11:23:04.354Z,5.80
2017-11-29T11:25:31.788Z,5.85
2017-11-29T11:27:59.201Z,5.68
2017-11-29T11:30:26.781Z,5.62
2017-11-29T11:32:54.207Z,5.59
2017-11-29T11:35:21.652Z,5.81
2017-11-29T11:37:49.061Z,5.66
2017-11-29T11:40:16.517Z,5.66
2017-11-29T11:42:43.924Z,5.94
2017-11-29T11:45:11.324Z,5.85
2017-11-29T11:47:38.828Z,5.80
2017-11-29T11:50:06.216Z,5.66
2017-11-29T11:52:33.664Z,5.40
2017-11-29T11:55:01.137Z,5.43
2017-11-29T11:57:28.633Z,5.15
2017-11-29T11:59:56.088Z,4.98
2017-11-29T12:02:23.560Z,4.69
2017-11-29T12:04:50.953Z,4.94
2017-11-29T12:07:18.387Z,5.08
2017-11-29T12:09:45.787Z,5.09
2017-11-29T12:12:13.234Z,5.10
2017-11-29T12:14:40.688Z,5.02
2017-11-29T12:17:08.259Z,4.92
2017-11-29T12:19:35.734Z,4.81
2017-11-29T12:22:03.185Z,4.88
2017-11-29T12:24:30.575Z,4.92
2017-11-29T12:26:58.032Z,6.53
2017-11-29T12:29:25.543Z,5.31
2017-11-29T12:31:53.043Z,4.90
2017-11-29T12:34:20.491Z,4.95
2017-11-29T12:36:47.925Z,4.71
2017-11-29T12:39:15.328Z,4.73
2017-11-29T12:41:42.857Z,4.61
2017-11-29T12:44:10.328Z,4.80
2017-11-29T12:46:37.731Z,4.74
2017-11-29T12:49:17.239Z,4.62
2017-11-29T12:51:44.645Z,4.56
2017-11-29T12:54:12.224Z,4.58
2017-11-29T12:56:39.659Z,4.54
2017-11-29T12:59:07.101Z,4.48
2017-11-29T13:01:34.509Z,4.48
2017-11-29T13:04:01.976Z,4.46
2017-11-29T13:06:29.379Z,4.49
2017-11-29T13:08:56.824Z,4.46
2017-11-29T13:11:24.300Z,4.36
2017-11-29T13:13:51.769Z,4.40
2017-11-29T13:16:19.168Z,4.38
2017-11-29T13:18:53.983Z,4.55
2017-11-29T13:21:27.869Z,4.53
2017-11-29T13:23:57.393Z,4.30
2017-11-29T13:26:24.869Z,4.66
2017-11-29T13:28:52.338Z,4.42
2017-11-29T13:31:19.754Z,4.29
2017-11-29T13:33:47.196Z,4.25
2017-11-29T13:36:14.638Z,4.33
2017-11-29T13:38:42.104Z,4.29
2017-11-29T13:41:09.500Z,4.34
2017-11-29T13:43:36.943Z,4.31
2017-11-29T13:46:04.413Z,4.36
2017-11-29T13:48:31.880Z,4.36
2017-11-29T13:50:59.371Z,4.40
2017-11-29T13:53:26.928Z,4.35
2017-11-29T13:55:54.376Z,4.34
2017-11-29T13:58:21.876Z,4.37
2017-11-29T14:00:49.263Z,4.60
2017-11-29T14:03:16.724Z,4.34
2017-11-29T14:05:44.173Z,4.40
2017-11-29T14:08:11.666Z,4.33
2017-11-29T14:10:39.096Z,4.17
2017-11-29T14:13:06.505Z,4.38
2017-11-29T14:15:34.029Z,4.35
2017-11-29T14:18:01.529Z,4.25
2017-11-29T14:20:29.101Z,4.18
2017-11-29T14:22:56.538Z,4.29
2017-11-29T14:25:23.984Z,4.23
2017-11-29T14:27:51.377Z,4.14
2017-11-29T14:30:18.822Z,4.37
2017-11-29T14:32:46.217Z,4.34
2017-11-29T14:35:13.679Z,4.48
2017-11-29T14:37:41.084Z,4.40
2017-11-29T14:40:08.553Z,4.37
2017-11-29T14:42:35.947Z,4.36
2017-11-29T14:45:03.373Z,4.17
2017-11-29T14:47:30.860Z,4.09
2017-11-29T14:49:58.358Z,3.91
2017-11-29T14:52:26.096Z,3.74
2017-11-29T14:54:53.589Z,3.58
2017-11-29T14:57:21.163Z,3.58
2017-11-29T14:59:48.633Z,3.43
2017-11-29T15:02:16.103Z,3.28
2017-11-29T15:04:43.540Z,3.30
2017-11-29T15:07:10.953Z,3.26
2017-11-29T15:09:38.504Z,3.42
2017-11-29T15:12:05.910Z,3.14
2017-11-29T15:14:33.357Z,3.04
2017-11-29T15:17:01.636Z,2.90
2017-11-29T15:19:29.107Z,3.04
2017-11-29T15:21:56.593Z,2.90
2017-11-29T15:24:24.137Z,2.84
2017-11-29T15:26:51.585Z,2.90
2017-11-29T15:29:18.992Z,2.85
2017-11-29T15:31:46.443Z,2.72
2017-11-29T15:34:13.919Z,2.57
2017-11-29T15:36:41.390Z,2.49
2017-11-29T15:39:08.861Z,2.53
2017-11-29T15:41:36.291Z,2.61
2017-11-29T15:44:03.691Z,2.59
2017-11-29T15:46:31.194Z,2.51
2017-11-29T15:48:58.620Z,2.57
2017-11-29T15:51:26.099Z,2.56
2017-11-29T15:53:53.545Z,2.58
2017-11-29T15:56:20.995Z,2.55
2017-11-29T15:58:48.401Z,2.48
2017-11-29T16:01:15.828Z,2.49
2017-11-29T16:03:43.275Z,2.47
2017-11-29T16:06:10.736Z,2.49
2017-11-29T16:08:38.127Z,2.36
2017-11-29T16:11:05.681Z,2.32
2017-11-29T16:13:33.089Z,2.17
2017-11-29T16:16:00.585Z,2.09
2017-11-29T16:18:28.005Z,2.18
2017-11-29T16:20:55.448Z,2.10
2017-11-29T16:23:22.843Z,2.01
2017-11-29T16:25:50.381Z,2.00
2017-11-29T16:28:17.773Z,2.01
2017-11-29T16:30:45.165Z,2.06
2017-11-29T16:33:12.737Z,2.04
2017-11-29T16:35:40.137Z,1.97
2017-11-29T16:38:07.597Z,2.00
2017-11-29T16:40:35.004Z,2.09
2017-11-29T16:43:02.475Z,2.08
2017-11-29T16:45:29.874Z,2.00
2017-11-29T16:47:57.353Z,1.84
2017-11-29T16:50:24.816Z,1.82
2017-11-29T16:52:52.265Z,1.84
2017-11-29T16:55:19.739Z,1.75
2017-11-29T16:57:47.195Z,1.76
2017-11-29T17:00:14.594Z,1.66
2017-11-29T17:02:42.072Z,1.70
2017-11-29T17:05:09.463Z,1.68
2017-11-29T17:07:36.955Z,1.67
2017-11-29T17:10:04.538Z,1.61
2017-11-29T17:12:32.056Z,1.57
2017-11-29T17:14:59.542Z,1.60
2017-11-29T17:17:27.081Z,1.55
2017-11-29T17:19:54.754Z,1.58
2017-11-29T17:22:22.220Z,1.51
2017-11-29T17:24:49.664Z,1.41
2017-11-29T17:27:17.202Z,1.39
2017-11-29T17:29:56.601Z,1.35
2017-11-29T17:32:24.119Z,1.17
2017-11-29T17:34:51.515Z,1.23
2017-11-29T17:37:18.955Z,1.12
2017-11-29T17:39:46.364Z,1.11
2017-11-29T17:42:13.823Z,1.11
2017-11-29T17:44:41.214Z,1.05
2017-11-29T17:47:08.786Z,0.98
2017-11-29T17:49:36.253Z,0.88
2017-11-29T17:52:03.642Z,0.99
2017-11-29T17:54:31.087Z,0.99
2017-11-29T17:56:58.555Z,0.92
2017-11-29T17:59:25.995Z,0.95
2017-11-29T18:01:53.397Z,0.87
2017-11-29T18:04:20.834Z,0.93
2017-11-29T18:06:48.229Z,1.00
2017-11-29T18:09:15.663Z,0.96
2017-11-29T18:11:43.060Z,0.96
2017-11-29T18:14:10.557Z,1.01
2017-11-29T18:16:38.007Z,1.12
2017-11-29T18:19:05.443Z,1.26
2017-11-29T18:21:32.859Z,1.28
2017-11-29T18:24:00.325Z,1.33
2017-11-29T18:26:27.731Z,1.34
2017-11-29T18:28:55.274Z,1.36
2017-11-29T18:31:22.669Z,1.50
2017-11-29T18:33:50.302Z,1.60
2017-11-29T18:36:17.772Z,1.60
2017-11-29T18:38:45.237Z,1.61
2017-11-29T18:41:12.891Z,1.60
2017-11-29T18:43:40.394Z,1.54
2017-11-29T18:46:07.813Z,1.52
2017-11-29T18:48:35.275Z,1.42
2017-11-29T18:51:02.693Z,1.40
2017-11-29T18:53:30.178Z,1.28
2017-11-29T18:55:57.608Z,1.22
2017-11-29T18:58:25.052Z,1.06
2017-11-29T19:00:52.463Z,1.05
2017-11-29T19:03:19.944Z,0.93
2017-11-29T19:05:47.418Z,0.82
2017-11-29T19:08:14.818Z,0.78
2017-11-29T19:10:42.280Z,0.82
2017-11-29T19:13:09.668Z,0.68
2017-11-29T19:15:37.109Z,0.63
2017-11-29T19:18:04.508Z,0.59
2017-11-29T19:20:32.048Z,0.50
2017-11-29T19:22:59.505Z,0.52
2017-11-29T19:25:26.969Z,0.45
2017-11-29T19:27:54.454Z,0.49
2017-11-29T19:30:21.945Z,0.53
2017-11-29T19:32:49.343Z,0.53
2017-11-29T19:35:16.828Z,0.57
2017-11-29T19:37:44.246Z,0.65
2017-11-29T19:40:11.778Z,0.58
2017-11-29T19:42:39.168Z,0.64
2017-11-29T19:45:06.931Z,0.92
2017-11-29T19:47:34.352Z,0.79
2017-11-29T19:50:01.759Z,0.69
2017-11-29T19:52:29.241Z,0.59
2017-11-29T19:54:56.783Z,0.66
2017-11-29T19:57:24.294Z,0.68
2017-11-29T19:59:51.827Z,0.77
2017-11-29T20:02:19.217Z,0.80
2017-11-29T20:04:46.663Z,0.78
2017-11-29T20:07:14.071Z,0.78
2017-11-29T20:09:41.525Z,0.77
2017-11-29T20:12:08.924Z,0.89
2017-11-29T20:14:36.399Z,0.88
2017-11-29T20:17:03.799Z,0.79
2017-11-29T20:19:31.314Z,0.76
2017-11-29T20:21:58.742Z,0.76
2017-11-29T20:24:26.230Z,0.69
2017-11-29T20:26:53.744Z,0.58
2017-11-29T20:29:21.157Z,0.70
2017-11-29T20:31:48.639Z,0.53
2017-11-29T20:34:16.038Z,0.57
2017-11-29T20:36:43.528Z,0.39
2017-11-29T20:39:11.877Z,0.37
2017-11-29T20:41:39.368Z,0.32
2017-11-29T20:44:06.836Z,0.26
2017-11-29T20:46:34.334Z,0.10
2017-11-29T20:49:01.734Z,0.18
2017-11-29T20:51:29.377Z,0.14
2017-11-29T20:53:56.860Z,-0.01
2017-11-29T20:56:24.569Z,-0.09
2017-11-29T20:58:52.016Z,-0.18
2017-11-29T21:01:19.578Z,-0.15
2017-11-29T21:03:47.015Z,-0.13
2017-11-29T21:06:14.484Z,-0.27
2017-11-29T21:08:41.918Z,-0.37
2017-11-29T21:11:09.420Z,-0.26
2017-11-29T21:13:36.820Z,-0.28
2017-11-29T21:16:04.289Z,-0.38
2017-11-29T21:18:31.692Z,-0.51
2017-11-29T21:20:59.195Z,-0.52
2017-11-29T21:23:26.663Z,-0.44
2017-11-29T21:25:54.107Z,-0.52
2017-11-29T21:28:21.616Z,-0.56
2017-11-29T21:30:49.087Z,-0.51
2017-11-29T21:33:16.653Z,-0.51
2017-11-29T21:35:44.158Z,-0.58
2017-11-29T21:38:11.607Z,-0.66
2017-11-29T21:40:39.059Z,-0.59
2017-11-29T21:43:06.537Z,-0.68
2017-11-29T21:45:34.088Z,-0.68
2017-11-29T21:48:01.536Z,-0.63
2017-11-29T21:50:28.956Z,-0.66
2017-11-29T21:52:56.438Z,-0.78
2017-11-29T21:55:23.899Z,-0.94
2017-11-29T21:57:51.346Z,-0.90
2017-11-29T22:00:18.748Z,-0.89
2017-11-29T22:02:46.196Z,-1.05
2017-11-29T22:05:13.621Z,-1.10
2017-11-29T22:07:41.151Z,-1.04
2017-11-29T22:10:08.607Z,-1.04
2017-11-29T22:12:38.457Z,-1.15
2017-11-29T22:15:10.807Z,-1.06
2017-11-29T22:17:43.902Z,-0.99
2017-11-29T22:20:16.927Z,-1.11
2017-11-29T22:22:49.405Z,-1.03
2017-11-29T22:25:21.820Z,-1.05
2017-11-29T22:27:54.979Z,-1.15
2017-11-29T22:30:22.485Z,-1.14
2017-11-29T22:32:49.931Z,-1.13
2017-11-29T22:35:17.417Z,-1.16
2017-11-29T22:37:44.994Z,-1.14
2017-11-29T22:40:12.484Z,-1.08
2017-11-29T22:42:40.058Z,-1.00
2017-11-29T22:45:07.524Z,-1.16
2017-11-29T22:47:35.245Z,-1.26
2017-11-29T22:50:02.641Z,-1.13
2017-11-29T22:52:30.109Z,-1.13
2017-11-29T22:54:57.561Z,-1.10
2017-11-29T22:57:24.999Z,-1.09
2017-11-29T22:59:52.482Z,-1.26
2017-11-29T23:02:19.874Z,-1.33
2017-11-29T23:04:47.424Z,-1.44
2017-11-29T23:07:15.712Z,-1.18
2017-11-29T23:09:43.439Z,-1.14
2017-11-29T23:12:11.668Z,-1.13
2017-11-29T23:14:39.968Z,-1.11
2017-11-29T23:17:07.392Z,-1.17
2017-11-29T23:19:34.869Z,-1.11
2017-11-29T23:22:02.421Z,-1.04
2017-11-29T23:24:29.850Z,-1.27
2017-11-29T23:26:57.268Z,-1.31
2017-11-29T23:29:24.736Z,-1.31
2017-11-29T23:31:52.133Z,-1.28
2017-11-29T23:34:19.676Z,-1.08
2017-11-29T23:36:47.155Z,-0.98
2017-11-29T23:39:14.631Z,-0.84
2017-11-29T23:41:42.052Z,-0.63
2017-11-29T23:44:09.480Z,-0.58
2017-11-29T23:46:36.882Z,-0.57
2017-11-29T23:49:04.336Z,-0.56
2017-11-29T23:51:31.761Z,-0.39
2017-11-29T23:53:59.332Z,-0.28
2017-11-29T23:56:26.833Z,-0.14
2017-11-29T23:58:54.328Z,0.04
